Time;durP1;ratioP1;P1;durP2;ratioP2;P2;SDS_P1;SDS_P2;PMS_P1;PMS_P2;Temp;Humidity;BMP_temperature;BMP_pressure;BME280_temperature;BME280_humidity;BME280_pressure;Samples;Min_cycle;Max_cycle;Signal;HPM_P1;HPM_P2
2022/04/29 00:01:05;;;;;;;18.17;11.70;;;14.80;62.80;;;;;;4996762;28;20639;-93
2022/04/29 00:03:33;;;;;;;22.07;12.60;;;14.80;62.60;;;;;;4997091;28;20252;-92
2022/04/29 00:06:02;;;;;;;21.97;12.23;;;14.80;63.00;;;;;;4991849;28;20255;-93
2022/04/29 00:08:29;;;;;;;29.47;14.30;;;14.80;63.00;;;;;;4978154;28;20647;-93
2022/04/29 00:10:56;;;;;;;23.83;12.73;;;14.80;63.00;;;;;;4994793;28;20288;-93
2022/04/29 00:13:23;;;;;;;25.03;13.10;;;14.80;63.00;;;;;;4993870;28;20733;-93
2022/04/29 00:15:50;;;;;;;28.57;14.57;;;14.70;62.80;;;;;;4992833;28;20308;-93
2022/04/29 00:19:02;;;;;;;26.93;13.60;;;14.70;62.90;;;;;;4996105;28;20229;-91
2022/04/29 00:21:31;;;;;;;19.37;12.67;;;14.70;63.60;;;;;;4971619;28;20203;-93
2022/04/29 00:23:58;;;;;;;20.63;12.37;;;14.70;62.90;;;;;;4957312;29;20211;-93
2022/04/29 00:26:26;;;;;;;19.30;12.27;;;14.60;62.80;;;;;;4958094;28;20269;-91
2022/04/29 00:28:53;;;;;;;21.30;11.53;;;14.60;62.80;;;;;;4957488;28;20218;-93
2022/04/29 00:31:22;;;;;;;21.00;11.67;;;14.60;63.50;;;;;;4977727;28;20214;-92
2022/04/29 00:33:50;;;;;;;19.23;11.17;;;14.60;62.80;;;;;;4995963;28;20240;-93
2022/04/29 00:36:17;;;;;;;13.73;10.07;;;14.50;62.80;;;;;;4978653;28;20214;-90
2022/04/29 00:38:45;;;;;;;20.83;12.07;;;14.50;62.40;;;;;;4955683;29;20301;-93
2022/04/29 00:41:17;;;;;;;16.63;11.03;;;14.50;62.60;;;;;;4963062;28;20250;-93
2022/04/29 00:43:45;;;;;;;19.60;11.57;;;14.50;62.70;;;;;;4974919;28;20287;-93
2022/04/29 00:46:18;;;;;;;16.57;11.07;;;14.40;62.60;;;;;;4971729;28;20206;-93
2022/04/29 00:48:47;;;;;;;19.07;11.27;;;14.40;62.60;;;;;;4975693;28;20224;-93
2022/04/29 00:51:16;;;;;;;17.23;11.43;;;14.40;62.60;;;;;;4963214;28;20207;-93
2022/04/29 00:53:44;;;;;;;26.17;12.47;;;14.40;62.70;;;;;;4955582;28;20219;-93
2022/04/29 00:59:16;;;;;;;17.30;11.43;;;14.40;63.30;;;;;;4966129;28;20315;-91
2022/04/29 01:01:48;;;;;;;22.20;12.40;;;14.30;63.20;;;;;;4965095;28;20206;-92
2022/04/29 01:04:21;;;;;;;15.90;10.67;;;14.30;62.80;;;;;;4975354;28;20260;-93
2022/04/29 01:06:52;;;;;;;18.03;12.27;;;14.30;63.10;;;;;;4981356;28;20234;-91
2022/04/29 01:09:30;;;;;;;19.07;11.20;;;14.30;62.90;;;;;;5005188;28;20234;-94
2022/04/29 01:11:59;;;;;;;20.30;11.47;;;14.20;63.20;;;;;;4977631;28;20231;-92
2022/04/29 01:14:26;;;;;;;18.10;10.83;;;14.20;63.80;;;;;;4977702;28;20191;-93
2022/04/29 01:16:58;;;;;;;17.40;11.43;;;14.20;63.00;;;;;;4960966;28;20231;-93
2022/04/29 01:19:26;;;;;;;17.23;10.67;;;14.10;63.00;;;;;;4956275;28;20240;-92
2022/04/29 01:21:54;;;;;;;22.93;12.33;;;14.10;63.00;;;;;;4974641;23;20640;-93
2022/04/29 01:24:23;;;;;;;18.93;11.30;;;14.10;63.20;;;;;;4995581;28;20218;-93
2022/04/29 01:26:50;;;;;;;19.70;12.43;;;14.10;63.30;;;;;;4989909;28;20717;-91
2022/04/29 01:29:27;;;;;;;24.57;12.90;;;14.10;63.10;;;;;;4994244;28;20264;-94
2022/04/29 01:31:55;;;;;;;21.17;12.13;;;14.10;63.80;;;;;;4993157;28;20212;-94
2022/04/29 01:37:01;;;;;;;16.63;11.23;;;14.10;63.90;;;;;;5027984;22;20331;-94
2022/04/29 01:39:32;;;;;;;19.63;12.13;;;14.10;63.80;;;;;;4992438;28;20239;-93
2022/04/29 01:42:17;;;;;;;20.43;12.57;;;14.00;63.90;;;;;;4985318;28;20272;-94
2022/04/29 01:44:47;;;;;;;21.37;12.17;;;14.00;63.80;;;;;;4975191;28;20213;-95
2022/04/29 01:47:21;;;;;;;18.13;10.67;;;14.00;63.60;;;;;;4985123;28;20221;-93
2022/04/29 01:49:48;;;;;;;21.60;12.60;;;13.90;63.90;;;;;;4991417;28;20242;-92
2022/04/29 01:52:43;;;;;;;20.17;12.23;;;13.90;63.50;;;;;;4992089;28;20300;-94
2022/04/29 01:55:15;;;;;;;19.83;11.40;;;13.90;64.40;;;;;;4984244;28;20232;-94
2022/04/29 01:57:46;;;;;;;19.97;12.23;;;13.90;64.00;;;;;;4979962;28;20236;-94
2022/04/29 02:00:14;;;;;;;19.83;11.90;;;13.80;64.00;;;;;;4994700;28;20206;-93
2022/04/29 02:02:46;;;;;;;22.90;13.07;;;13.80;63.90;;;;;;4993750;28;20732;-94
2022/04/29 02:05:13;;;;;;;21.57;11.63;;;13.80;64.30;;;;;;4991240;28;20269;-93
2022/04/29 02:07:40;;;;;;;22.70;12.97;;;13.80;64.10;;;;;;4992693;28;20885;-92
2022/04/29 02:10:08;;;;;;;21.03;12.57;;;13.70;64.00;;;;;;4992664;28;20272;-93
2022/04/29 02:12:38;;;;;;;25.43;13.57;;;13.70;64.20;;;;;;4992267;28;20723;-92
2022/04/29 02:15:07;;;;;;;22.67;11.77;;;13.70;64.50;;;;;;4993432;28;20622;-92
2022/04/29 02:17:34;;;;;;;24.30;13.43;;;13.70;64.40;;;;;;4991437;28;20258;-93
2022/04/29 02:20:02;;;;;;;22.33;12.13;;;13.70;64.30;;;;;;4978774;28;20634;-92
2022/04/29 02:22:30;;;;;;;19.60;11.90;;;13.70;64.70;;;;;;4988344;28;20224;-93
2022/04/29 02:24:59;;;;;;;21.80;12.87;;;13.60;64.50;;;;;;4992039;28;20211;-92
2022/04/29 02:27:26;;;;;;;22.27;12.90;;;13.60;64.60;;;;;;4989228;28;20209;-92
2022/04/29 02:29:57;;;;;;;20.37;12.53;;;13.60;64.50;;;;;;4992381;28;20232;-92
2022/04/29 02:32:29;;;;;;;18.47;13.37;;;13.60;65.00;;;;;;4991559;28;20902;-93
2022/04/29 02:34:57;;;;;;;24.47;14.00;;;13.50;65.10;;;;;;4996491;28;20228;-93
2022/04/29 02:37:27;;;;;;;18.53;12.80;;;13.50;64.70;;;;;;5003372;28;20237;-93
2022/04/29 02:39:55;;;;;;;20.73;13.23;;;13.50;64.90;;;;;;4970859;28;20205;-91
2022/04/29 02:42:23;;;;;;;18.83;13.17;;;13.50;65.00;;;;;;4956679;29;20240;-92
2022/04/29 02:44:50;;;;;;;21.37;13.60;;;13.40;65.00;;;;;;4991310;28;20278;-93
2022/04/29 02:47:22;;;;;;;23.73;13.10;;;13.40;65.10;;;;;;4992621;28;20299;-93
2022/04/29 02:49:51;;;;;;;25.10;14.33;;;13.40;65.80;;;;;;4963777;28;20217;-92
2022/04/29 02:52:18;;;;;;;26.03;14.40;;;13.40;65.50;;;;;;4953451;28;20236;-92
2022/04/29 02:54:45;;;;;;;23.47;13.30;;;13.40;65.40;;;;;;4988505;28;20211;-93
2022/04/29 02:57:12;;;;;;;22.43;13.57;;;13.40;65.50;;;;;;4991718;28;20205;-94
2022/04/29 02:59:40;;;;;;;23.77;13.93;;;13.30;65.50;;;;;;5003743;28;20220;-94
2022/04/29 03:02:07;;;;;;;22.73;13.50;;;13.30;65.60;;;;;;5012524;28;20194;-93
2022/04/29 03:04:35;;;;;;;25.97;13.97;;;13.30;65.80;;;;;;4996049;28;20235;-93
2022/04/29 03:07:02;;;;;;;20.80;13.83;;;13.20;65.90;;;;;;4982544;28;20210;-92
2022/04/29 03:09:29;;;;;;;21.20;12.97;;;13.30;66.10;;;;;;4957592;28;20212;-93
2022/04/29 03:20:48;;;;;;;23.30;13.63;;;13.10;66.50;;;;;;4953939;29;20304;-92
2022/04/29 03:23:16;;;;;;;17.23;12.57;;;13.10;67.00;;;;;;4952815;29;20209;-92
2022/04/29 03:25:47;;;;;;;22.97;13.23;;;13.10;66.50;;;;;;4953251;29;20258;-94
2022/04/29 03:28:15;;;;;;;33.33;17.70;;;13.00;66.70;;;;;;4995756;22;20309;-92
2022/04/29 03:31:00;;;;;;;19.90;12.67;;;13.00;66.50;;;;;;4972276;28;20317;-94
2022/04/29 03:33:27;;;;;;;24.17;13.93;;;13.00;67.50;;;;;;4971181;28;20203;-93
2022/04/29 03:36:00;;;;;;;25.77;14.53;;;13.00;66.70;;;;;;4959876;28;20255;-95
2022/04/29 03:38:28;;;;;;;27.73;15.03;;;12.90;67.10;;;;;;4970182;28;20764;-95
2022/04/29 03:40:58;;;;;;;27.43;12.97;;;13.00;66.90;;;;;;4972507;28;20215;-94
2022/04/29 03:43:25;;;;;;;48.30;20.27;;;12.90;67.40;;;;;;5111241;22;20212;-91
2022/04/29 03:45:52;;;;;;;26.17;14.10;;;12.90;67.20;;;;;;4992682;28;20639;-94
2022/04/29 03:48:19;;;;;;;20.87;12.90;;;12.90;67.10;;;;;;4991718;28;20242;-94
2022/04/29 03:50:52;;;;;;;17.87;12.10;;;12.90;67.30;;;;;;4992901;28;20225;-94
2022/04/29 03:54:22;;;;;;;19.73;12.27;;;12.90;67.90;;;;;;4992514;28;20574;-94
2022/04/29 03:56:51;;;;;;;21.57;12.53;;;12.90;68.20;;;;;;4912546;29;20916;-92
2022/04/29 03:59:18;;;;;;;18.63;11.57;;;12.90;68.10;;;;;;4991315;28;20254;-94
2022/04/29 04:01:46;;;;;;;27.33;13.97;;;12.90;67.30;;;;;;4992198;28;20242;-94
2022/04/29 04:04:13;;;;;;;22.23;12.73;;;12.80;67.60;;;;;;5006636;28;20265;-93
2022/04/29 04:06:52;;;;;;;22.07;12.33;;;12.90;67.50;;;;;;5007197;28;20199;-94
2022/04/29 04:09:21;;;;;;;21.43;12.93;;;12.80;67.60;;;;;;5013226;28;20220;-93
2022/04/29 04:11:50;;;;;;;19.97;12.07;;;12.90;67.80;;;;;;4999450;28;20215;-95
2022/04/29 04:14:19;;;;;;;18.17;11.03;;;12.80;67.90;;;;;;4995291;28;20235;-96
2022/04/29 04:16:47;;;;;;;21.60;11.43;;;12.80;67.90;;;;;;4989137;28;20302;-96
2022/04/29 04:19:20;;;;;;;19.33;11.23;;;12.80;67.70;;;;;;4976691;28;20234;-93
2022/04/29 04:21:46;;;;;;;16.77;12.00;;;12.80;68.30;;;;;;4973689;28;20238;-95
2022/04/29 04:24:14;;;;;;;20.57;12.73;;;12.90;68.60;;;;;;4971823;28;20305;-95
2022/04/29 04:26:41;;;;;;;22.87;12.30;;;12.80;67.80;;;;;;4970988;28;20212;-94
2022/04/29 04:29:11;;;;;;;19.53;11.93;;;12.80;67.80;;;;;;4971370;28;20229;-93
2022/04/29 04:31:39;;;;;;;17.87;10.87;;;12.80;68.10;;;;;;4971595;28;20201;-94
2022/04/29 04:36:52;;;;;;;20.00;11.77;;;12.80;68.00;;;;;;4972305;28;20257;-94
2022/04/29 04:39:21;;;;;;;16.03;10.97;;;12.90;68.00;;;;;;4972359;28;20236;-94
2022/04/29 04:41:50;;;;;;;20.77;11.03;;;12.90;68.20;;;;;;4972036;28;20968;-94
2022/04/29 04:44:19;;;;;;;18.83;11.27;;;12.80;67.90;;;;;;4971810;28;20254;-95
2022/04/29 04:47:08;;;;;;;25.50;12.63;;;12.80;68.20;;;;;;4971642;28;20283;-93
2022/04/29 04:49:38;;;;;;;20.10;11.03;;;12.80;68.80;;;;;;4974231;28;20218;-93
2022/04/29 04:52:08;;;;;;;23.87;11.20;;;12.80;68.10;;;;;;4975860;28;20228;-96
2022/04/29 04:54:35;;;;;;;19.40;10.10;;;12.80;67.90;;;;;;4977570;28;20285;-93
2022/04/29 04:59:29;;;;;;;21.80;11.80;;;12.80;67.90;;;;;;4983502;22;20259;-94
2022/04/29 05:02:16;;;;;;;18.20;10.37;;;12.70;68.10;;;;;;4969504;28;20231;-95
2022/04/29 05:04:43;;;;;;;23.37;10.87;;;12.80;68.40;;;;;;4962855;28;20221;-94
2022/04/29 05:07:10;;;;;;;16.97;9.43;;;12.80;68.10;;;;;;4973035;28;20210;-94
2022/04/29 05:09:38;;;;;;;20.23;11.07;;;12.80;68.10;;;;;;4972291;28;20197;-93
2022/04/29 05:12:07;;;;;;;25.23;11.97;;;12.80;68.30;;;;;;4965415;28;20266;-95
2022/04/29 05:14:36;;;;;;;22.20;11.40;;;12.80;68.10;;;;;;4972587;28;20215;-94
2022/04/29 05:17:03;;;;;;;24.33;11.30;;;12.80;68.20;;;;;;4973353;28;20195;-95
2022/04/29 05:19:31;;;;;;;14.30;9.47;;;12.80;67.90;;;;;;4993691;28;20326;-95
2022/04/29 05:21:58;;;;;;;15.67;10.00;;;12.80;68.00;;;;;;4995254;28;20377;-95
2022/04/29 05:24:26;;;;;;;16.60;10.43;;;12.90;68.50;;;;;;4996689;28;20235;-93
2022/04/29 05:26:53;;;;;;;18.10;10.97;;;12.80;68.20;;;;;;4992213;28;20200;-95
2022/04/29 05:29:37;;;;;;;18.97;10.20;;;12.80;68.00;;;;;;4992166;28;20652;-94
2022/04/29 05:32:05;;;;;;;13.80;9.00;;;12.90;68.70;;;;;;4994807;28;20226;-95
2022/04/29 05:34:35;;;;;;;16.90;10.20;;;12.90;68.30;;;;;;4994781;28;20303;-95
2022/04/29 05:37:07;;;;;;;17.07;10.73;;;12.90;68.10;;;;;;4994027;28;20214;-94
2022/04/29 05:42:23;;;;;;;19.27;10.77;;;12.90;68.30;;;;;;4995746;28;20213;-92
2022/04/29 05:44:57;;;;;;;22.37;11.60;;;12.90;68.20;;;;;;4987967;28;20208;-91
2022/04/29 05:47:34;;;;;;;16.60;10.70;;;12.90;68.60;;;;;;4979304;28;20870;-94
2022/04/29 05:53:24;;;;;;;23.03;11.10;;;12.90;68.80;;;;;;4984231;22;20253;-91
2022/04/29 05:55:53;;;;;;;21.17;9.53;;;12.90;68.40;;;;;;4958866;28;20206;-92
2022/04/29 05:58:23;;;;;;;18.60;10.53;;;12.80;68.20;;;;;;4963251;28;20582;-91
2022/04/29 06:00:58;;;;;;;15.87;9.57;;;12.80;68.30;;;;;;4974460;28;20214;-93
2022/04/29 06:03:26;;;;;;;15.60;9.50;;;12.80;68.50;;;;;;4974639;28;20199;-93
2022/04/29 06:06:12;;;;;;;20.93;10.67;;;12.80;68.30;;;;;;4973515;28;20209;-93
2022/04/29 06:08:40;;;;;;;22.07;10.90;;;12.80;68.90;;;;;;4974826;28;20314;-91
2022/04/29 06:11:08;;;;;;;19.87;10.80;;;12.80;68.30;;;;;;4976158;28;20210;-88
2022/04/29 06:13:37;;;;;;;15.90;10.13;;;12.80;68.40;;;;;;4984583;28;20200;-92
2022/04/29 06:16:10;;;;;;;22.07;11.37;;;12.80;68.30;;;;;;4992350;28;20214;-92
2022/04/29 06:18:37;;;;;;;18.73;10.40;;;12.80;68.70;;;;;;4972116;28;20229;-93
2022/04/29 06:21:06;;;;;;;26.00;10.50;;;12.80;68.40;;;;;;4954709;28;20248;-92
2022/04/29 06:23:34;;;;;;;14.70;9.00;;;12.80;68.30;;;;;;4954998;28;20216;-92
2022/04/29 06:26:04;;;;;;;15.03;9.40;;;12.80;68.50;;;;;;4957769;28;20287;-93
2022/04/29 06:31:15;;;;;;;16.40;10.70;;;12.80;68.60;;;;;;4946423;28;20665;-94
2022/04/29 06:33:43;;;;;;;11.67;8.90;;;12.70;68.50;;;;;;4955648;29;20256;-95
2022/04/29 06:36:13;;;;;;;16.10;10.70;;;12.80;68.30;;;;;;4956002;29;20224;-94
2022/04/29 06:38:41;;;;;;;22.03;10.40;;;12.80;68.70;;;;;;4968765;28;20225;-95
2022/04/29 06:41:08;;;;;;;20.67;10.40;;;12.80;68.50;;;;;;4974929;28;20282;-95
2022/04/29 06:43:55;;;;;;;;;;;;;;;;;;;;;
2022/04/29 06:46:25;;;;;;;21.77;10.77;;;12.80;68.70;;;;;;4963146;28;20211;-93
2022/04/29 06:49:10;;;;;;;16.13;8.77;;;12.80;68.40;;;;;;4954421;29;20211;-93
2022/04/29 06:51:37;;;;;;;14.00;9.23;;;12.90;68.60;;;;;;4954774;29;20679;-94
2022/04/29 06:54:05;;;;;;;23.83;10.10;;;12.90;68.00;;;;;;4948873;29;20265;-94
2022/04/29 06:56:31;;;;;;;23.30;12.00;;;12.90;68.20;;;;;;4934102;29;20651;-88
2022/04/29 06:59:03;;;;;;;21.40;9.73;;;12.90;68.10;;;;;;4952139;29;20229;-93
2022/04/29 07:01:32;;;;;;;29.90;11.93;;;12.90;68.10;;;;;;4952835;29;20225;-92
2022/04/29 07:04:00;;;;;;;21.33;10.77;;;12.90;68.10;;;;;;4960882;29;20256;-94
2022/04/29 07:06:27;;;;;;;21.60;10.50;;;12.90;68.20;;;;;;4967726;28;20204;-93
2022/04/29 07:08:54;;;;;;;26.80;12.63;;;12.90;68.90;;;;;;4969247;28;20198;-93
2022/04/29 07:11:25;;;;;;;16.07;9.43;;;12.90;68.10;;;;;;4965626;29;20259;-96
2022/04/29 07:13:55;;;;;;;18.60;10.67;;;12.90;68.10;;;;;;4944429;29;20210;-96
2022/04/29 07:16:31;;;;;;;15.47;9.00;;;12.90;68.20;;;;;;4950323;29;20212;-96
2022/04/29 07:19:00;;;;;;;16.17;9.43;;;12.90;68.20;;;;;;4954643;29;20239;-96
2022/04/29 07:21:29;;;;;;;15.07;9.63;;;12.90;68.10;;;;;;4952470;29;20217;-95
2022/04/29 07:24:02;;;;;;;14.17;8.90;;;13.00;68.30;;;;;;4956915;28;20206;-96
2022/04/29 07:26:30;;;;;;;19.73;9.23;;;13.00;68.40;;;;;;4973302;28;20200;-95
2022/04/29 07:29:02;;;;;;;12.33;9.07;;;13.00;68.20;;;;;;4945900;28;20963;-95
2022/04/29 07:31:29;;;;;;;18.90;9.93;;;13.00;68.40;;;;;;4935602;29;20197;-94
2022/04/29 07:33:57;;;;;;;16.67;9.80;;;13.10;68.30;;;;;;4935572;29;20243;-92
2022/04/29 07:42:05;;;;;;;15.70;10.50;;;13.20;67.80;;;;;;4930841;28;20207;-95
2022/04/29 07:44:41;;;;;;;17.80;10.00;;;13.20;67.60;;;;;;4956564;28;20201;-94
2022/04/29 07:47:09;;;;;;;15.53;10.03;;;13.30;67.90;;;;;;4953020;29;20252;-96
2022/04/29 07:49:38;;;;;;;12.73;8.33;;;13.30;67.50;;;;;;4954479;29;20286;-96
2022/04/29 07:52:17;;;;;;;19.20;10.53;;;13.40;67.50;;;;;;4954510;28;20270;-96
2022/04/29 07:55:06;;;;;;;19.50;10.83;;;13.40;67.50;;;;;;4954464;28;20206;-96
2022/04/29 07:57:39;;;;;;;19.03;10.23;;;13.40;67.90;;;;;;4933374;28;20288;-95
2022/04/29 08:03:28;;;;;;;11.47;8.30;;;13.60;67.70;;;;;;4953585;29;20201;-96
2022/04/29 08:05:57;;;;;;;19.93;9.57;;;13.60;67.30;;;;;;4954991;28;20953;-95
2022/04/29 08:11:16;;;;;;;23.23;11.30;;;13.70;67.50;;;;;;4980687;23;20312;-95
2022/04/29 08:13:45;;;;;;;18.87;9.97;;;13.80;67.30;;;;;;4976716;28;21011;-95
2022/04/29 08:16:15;;;;;;;14.97;8.73;;;13.90;67.10;;;;;;4974460;28;20203;-94
2022/04/29 08:18:46;;;;;;;16.07;9.40;;;13.90;66.80;;;;;;4983227;28;20668;-95
2022/04/29 08:21:18;;;;;;;25.20;11.90;;;14.00;66.70;;;;;;4976645;28;20271;-93
2022/04/29 08:23:46;;;;;;;18.80;9.90;;;14.00;66.50;;;;;;4957160;28;20216;-93
2022/04/29 08:26:15;;;;;;;16.37;9.57;;;14.10;66.10;;;;;;4960974;29;20207;-93
2022/04/29 08:28:42;;;;;;;16.50;10.33;;;14.10;66.00;;;;;;4957736;29;20269;-93
2022/04/29 08:31:11;;;;;;;14.20;10.30;;;14.20;66.10;;;;;;4956450;28;20211;-92
2022/04/29 08:33:40;;;;;;;20.63;10.67;;;14.20;65.90;;;;;;4956810;29;20214;-93
2022/04/29 08:36:08;;;;;;;14.93;10.57;;;14.20;65.70;;;;;;4957816;28;20223;-95
2022/04/29 08:39:31;;;;;;;14.90;10.50;;;14.30;65.70;;;;;;4958204;29;20207;-93
2022/04/29 08:42:27;;;;;;;14.47;10.07;;;14.30;65.40;;;;;;4946084;29;20231;-93
2022/04/29 08:45:01;;;;;;;15.00;9.90;;;14.40;65.40;;;;;;4956761;28;20246;-94
2022/04/29 08:47:28;;;;;;;16.50;10.50;;;14.40;65.10;;;;;;4956910;29;20689;-91
2022/04/29 08:50:02;;;;;;;18.40;11.00;;;14.50;65.10;;;;;;4959568;28;20609;-95
2022/04/29 08:52:55;;;;;;;24.53;10.70;;;14.50;64.90;;;;;;4983280;28;20292;-96
2022/04/29 09:07:12;;;;;;;19.60;10.40;;;14.60;64.70;;;;;;5142285;27;20570;-94
2022/04/29 09:17:30;;;;;;;18.57;10.87;;;15.40;64.40;;;;;;5220445;22;20236;-92
2022/04/29 09:19:58;;;;;;;16.17;10.30;;;15.40;63.70;;;;;;5051715;28;20209;-96
2022/04/29 09:22:33;;;;;;;13.93;10.93;;;15.50;63.70;;;;;;5060380;28;20295;-96
2022/04/29 09:25:07;;;;;;;16.67;10.33;;;15.60;63.60;;;;;;5051232;28;20286;-96
2022/04/29 09:27:54;;;;;;;13.60;10.27;;;15.70;63.80;;;;;;5050997;28;20203;-96
2022/04/29 09:30:33;;;;;;;16.93;10.67;;;15.70;63.40;;;;;;5051734;28;20241;-96
2022/04/29 09:33:01;;;;;;;18.60;11.20;;;15.80;63.10;;;;;;5080703;28;20214;-96
2022/04/29 09:35:39;;;;;;;20.33;11.93;;;15.90;63.20;;;;;;5090139;28;20253;-96
2022/04/29 09:41:05;;;;;;;16.10;9.73;;;16.10;62.60;;;;;;5080420;28;20678;-96
2022/04/29 09:46:25;;;;;;;21.87;11.63;;;16.30;61.90;;;;;;5047966;28;20384;-96
2022/04/29 09:49:17;;;;;;;17.37;10.17;;;16.30;61.80;;;;;;5074897;28;20223;-96
2022/04/29 09:51:51;;;;;;;18.77;10.73;;;16.40;61.80;;;;;;5082398;28;20219;-96
2022/04/29 09:54:28;;;;;;;21.37;10.67;;;16.50;61.90;;;;;;5078545;28;20234;-96
2022/04/29 09:57:11;;;;;;;15.40;9.83;;;16.60;61.20;;;;;;5071452;28;20315;-96
2022/04/29 09:59:44;;;;;;;25.77;13.27;;;16.70;61.00;;;;;;5060845;28;20212;-96
2022/04/29 10:02:14;;;;;;;15.97;9.93;;;16.80;61.20;;;;;;5050662;28;20255;-96
2022/04/29 10:04:43;;;;;;;21.87;11.90;;;16.80;61.10;;;;;;5072330;28;20643;-96
2022/04/29 10:07:13;;;;;;;15.50;10.57;;;16.90;60.90;;;;;;5062136;28;20211;-95
2022/04/29 10:09:47;;;;;;;20.57;10.40;;;17.00;60.50;;;;;;5055593;28;20271;-96
2022/04/29 10:12:21;;;;;;;14.97;9.27;;;17.00;59.90;;;;;;5052341;28;20202;-96
2022/04/29 10:14:50;;;;;;;20.03;11.63;;;17.10;59.90;;;;;;5055969;28;20225;-96
2022/04/29 10:23:02;;;;;;;15.20;10.20;;;17.20;59.30;;;;;;5043138;28;20214;-96
2022/04/29 10:26:14;;;;;;;17.20;10.47;;;17.30;59.20;;;;;;5037413;28;20199;-95
2022/04/29 10:28:47;;;;;;;11.73;9.23;;;17.30;58.70;;;;;;5025241;28;20206;-95
2022/04/29 10:31:21;;;;;;;16.47;10.37;;;17.40;59.10;;;;;;5035775;28;20207;-93
2022/04/29 10:33:53;;;;;;;17.70;11.67;;;17.50;59.10;;;;;;5052566;28;20579;-94
2022/04/29 10:36:38;;;;;;;16.27;10.13;;;17.50;58.50;;;;;;5038417;28;20256;-96
2022/04/29 10:39:25;;;;;;;17.33;10.00;;;17.60;58.40;;;;;;5047752;28;20206;-96
2022/04/29 10:42:03;;;;;;;17.87;10.83;;;17.70;58.00;;;;;;5062592;28;20214;-94
2022/04/29 10:45:02;;;;;;;20.50;10.87;;;17.70;58.20;;;;;;5040841;28;20203;-96
2022/04/29 10:47:38;;;;;;;14.47;9.50;;;17.80;57.90;;;;;;5035019;28;20204;-92
2022/04/29 10:50:37;;;;;;;15.23;10.70;;;17.90;57.60;;;;;;5034603;28;20258;-96
2022/04/29 10:53:07;;;;;;;13.77;9.03;;;17.90;56.80;;;;;;5035138;28;20211;-93
2022/04/29 10:58:27;;;;;;;15.27;10.47;;;18.00;57.40;;;;;;5047567;22;20234;-96
2022/04/29 11:01:23;;;;;;;19.23;11.90;;;18.10;57.10;;;;;;5056145;28;20497;-96
2022/04/29 11:03:51;;;;;;;29.67;14.17;;;18.20;56.70;;;;;;5061654;22;21346;-96
2022/04/29 11:06:18;;;;;;;15.67;11.27;;;18.20;57.30;;;;;;5051984;28;20201;-96
2022/04/29 11:08:49;;;;;;;21.10;12.03;;;18.30;57.30;;;;;;5048639;28;20209;-96
2022/04/29 11:11:18;;;;;;;16.80;10.57;;;18.40;57.60;;;;;;5033846;28;20209;-94
2022/04/29 11:13:47;;;;;;;18.10;11.23;;;18.40;57.20;;;;;;5035783;28;20268;-93
2022/04/29 11:16:52;;;;;;;16.37;10.40;;;18.40;57.00;;;;;;5042144;28;20281;-93
2022/04/29 11:19:28;;;;;;;19.83;11.30;;;18.50;56.30;;;;;;5029987;28;20201;-95
2022/04/29 11:24:52;;;;;;;13.10;10.23;;;18.60;57.40;;;;;;5024057;28;20219;-96
2022/04/29 11:27:25;;;;;;;21.00;11.47;;;18.60;56.50;;;;;;5032597;28;20212;-94
2022/04/29 11:30:01;;;;;;;19.20;12.67;;;18.70;56.60;;;;;;5032855;28;20200;-95
2022/04/29 11:32:32;;;;;;;18.73;10.90;;;18.80;56.80;;;;;;5035026;28;20205;-96
2022/04/29 11:35:19;;;;;;;15.80;10.77;;;18.90;56.50;;;;;;5029582;28;20204;-96
2022/04/29 11:37:49;;;;;;;17.50;10.80;;;19.00;56.00;;;;;;5032876;28;20235;-95
2022/04/29 11:43:12;;;;;;;17.80;11.27;;;19.20;55.50;;;;;;5024975;28;20264;-93
2022/04/29 11:45:42;;;;;;;21.60;11.67;;;19.20;56.30;;;;;;5027467;28;20205;-96
2022/04/29 11:51:18;;;;;;;16.00;10.27;;;19.40;55.00;;;;;;5018101;28;20215;-96
2022/04/29 11:53:59;;;;;;;14.50;9.13;;;19.50;55.40;;;;;;5029024;28;20197;-93
2022/04/29 11:56:35;;;;;;;13.03;9.43;;;19.50;54.80;;;;;;5032057;28;20273;-96
2022/04/29 11:59:09;;;;;;;15.13;10.13;;;19.60;54.60;;;;;;5033443;28;20201;-96
2022/04/29 12:02:03;;;;;;;16.10;11.03;;;19.70;54.50;;;;;;5031415;28;20204;-96
2022/04/29 12:04:30;;;;;;;15.47;10.23;;;19.80;54.30;;;;;;5016563;28;20209;-92
2022/04/29 12:06:59;;;;;;;14.03;9.27;;;19.90;55.20;;;;;;5031328;28;20273;-96
2022/04/29 12:09:35;;;;;;;17.73;9.33;;;20.00;54.40;;;;;;5023595;28;20251;-95
2022/04/29 12:12:03;;;;;;;17.13;9.83;;;20.00;54.10;;;;;;5021676;28;20368;-96
2022/04/29 12:14:30;;;;;;;13.83;9.27;;;20.10;54.50;;;;;;5018682;28;20279;-95
2022/04/29 12:16:57;;;;;;;12.50;8.77;;;20.10;54.00;;;;;;5014811;28;20285;-93
2022/04/29 12:19:49;;;;;;;17.37;10.07;;;20.20;54.10;;;;;;5022767;28;20201;-96
2022/04/29 12:22:30;;;;;;;12.93;8.87;;;20.30;54.10;;;;;;5055388;22;20323;-96
2022/04/29 12:24:59;;;;;;;17.30;9.57;;;20.40;53.50;;;;;;4999595;28;20300;-94
2022/04/29 12:27:31;;;;;;;15.70;9.30;;;20.40;53.80;;;;;;5008971;28;20209;-95
2022/04/29 12:35:49;;;;;;;11.60;8.40;;;20.70;52.70;;;;;;4971543;28;20277;-92
2022/04/29 12:38:19;;;;;;;12.63;9.10;;;20.90;53.70;;;;;;5012988;28;20191;-93
2022/04/29 12:40:47;;;;;;;14.67;8.77;;;20.90;52.50;;;;;;4994522;28;20295;-96
2022/04/29 12:43:17;;;;;;;13.60;8.80;;;21.00;52.90;;;;;;5012670;28;20276;-96
2022/04/29 12:45:44;;;;;;;14.43;8.77;;;21.10;52.60;;;;;;5010830;28;20308;-96
2022/04/29 12:48:16;;;;;;;12.27;8.00;;;21.10;52.10;;;;;;5011226;28;20216;-96
2022/04/29 12:50:45;;;;;;;15.97;8.30;;;21.20;52.10;;;;;;4993004;28;20223;-95
2022/04/29 12:53:15;;;;;;;15.07;9.17;;;21.20;52.20;;;;;;5007072;28;20291;-94
2022/04/29 12:55:56;;;;;;;12.57;7.50;;;21.30;52.00;;;;;;5007010;28;20212;-95
2022/04/29 12:58:26;;;;;;;16.47;8.90;;;21.30;50.90;;;;;;5009976;28;20197;-91
2022/04/29 13:01:09;;;;;;;11.47;7.97;;;21.30;51.80;;;;;;5014206;28;20198;-95
2022/04/29 13:03:53;;;;;;;15.53;8.67;;;21.30;50.90;;;;;;5012529;28;20224;-96
2022/04/29 13:06:23;;;;;;;11.60;8.40;;;21.20;51.30;;;;;;4993034;28;20201;-96
2022/04/29 13:08:53;;;;;;;12.90;6.70;;;21.10;51.10;;;;;;5005536;28;21083;-96
2022/04/29 13:11:29;;;;;;;15.33;9.27;;;21.10;51.10;;;;;;5004917;28;20232;-96
2022/04/29 13:14:00;;;;;;;7.10;6.40;;;21.10;50.60;;;;;;5012453;28;20299;-96
2022/04/29 13:16:29;;;;;;;12.87;6.73;;;21.00;50.90;;;;;;5009149;28;20234;-94
2022/04/29 13:18:57;;;;;;;13.10;8.00;;;20.90;51.00;;;;;;5012439;28;20205;-95
2022/04/29 13:21:26;;;;;;;15.57;8.07;;;20.90;51.30;;;;;;5008473;28;20214;-96
2022/04/29 13:23:56;;;;;;;9.63;6.73;;;20.80;51.20;;;;;;5009963;28;20285;-96
2022/04/29 13:26:23;;;;;;;18.00;7.87;;;20.80;51.30;;;;;;5022497;28;20193;-92
2022/04/29 13:28:53;;;;;;;14.90;7.70;;;20.70;51.30;;;;;;5024949;28;20232;-95
2022/04/29 13:31:24;;;;;;;13.40;7.87;;;20.60;51.50;;;;;;5019933;28;20209;-94
2022/04/29 13:33:52;;;;;;;12.50;7.57;;;20.50;51.30;;;;;;5016466;28;20198;-94
2022/04/29 13:36:21;;;;;;;11.73;6.50;;;20.50;51.40;;;;;;5018716;28;20287;-94
2022/04/29 13:38:48;;;;;;;14.77;8.30;;;20.40;51.40;;;;;;5020280;28;20281;-96
2022/04/29 13:41:16;;;;;;;15.43;8.27;;;20.40;51.50;;;;;;5014994;28;20216;-92
2022/04/29 13:46:30;;;;;;;16.70;9.27;;;20.40;51.70;;;;;;5077102;22;20623;-96
2022/04/29 13:48:58;;;;;;;15.60;7.87;;;20.30;51.50;;;;;;5021721;28;20201;-94
2022/04/29 13:51:25;;;;;;;21.43;9.53;;;20.30;51.70;;;;;;5034059;28;20189;-96
2022/04/29 13:53:59;;;;;;;13.17;6.70;;;20.30;51.80;;;;;;5022722;28;20206;-95
2022/04/29 13:56:27;;;;;;;12.47;7.17;;;20.30;51.60;;;;;;5015178;28;20253;-96
2022/04/29 13:58:56;;;;;;;10.17;7.53;;;20.20;51.50;;;;;;5017562;28;20293;-94
2022/04/29 14:01:25;;;;;;;12.03;7.37;;;20.20;51.40;;;;;;5006140;28;20209;-95
2022/04/29 14:03:55;;;;;;;10.67;6.97;;;20.10;51.80;;;;;;4998555;28;20611;-93
2022/04/29 14:06:26;;;;;;;7.93;6.63;;;20.10;51.50;;;;;;5009204;28;20232;-95
2022/04/29 14:08:59;;;;;;;10.87;7.47;;;20.10;51.40;;;;;;5016123;28;20202;-96
2022/04/29 14:11:38;;;;;;;11.20;7.20;;;20.00;51.70;;;;;;5007380;28;20209;-94
2022/04/29 14:14:05;;;;;;;14.10;7.67;;;20.00;51.60;;;;;;5016124;28;20330;-94
2022/04/29 14:16:41;;;;;;;10.27;7.23;;;20.00;52.00;;;;;;5013147;28;20269;-95
2022/04/29 14:19:12;;;;;;;11.73;7.83;;;20.00;51.60;;;;;;5009961;28;20204;-93
2022/04/29 14:21:54;;;;;;;10.47;7.77;;;20.00;52.00;;;;;;5010213;28;20233;-95
2022/04/29 14:24:21;;;;;;;11.30;6.87;;;20.00;51.90;;;;;;5013168;28;20209;-93
2022/04/29 14:26:48;;;;;;;17.07;8.50;;;20.00;52.10;;;;;;5011965;28;20674;-93